Архив погоды в Ухте

Метеограмма Ухта
Среда, 21 Августа
Время местн. Темп Ветер Видим Явления Облачность нижн/средн/верх Атм. давл. Влжн Точка росы ВНГО R Сост. почвы Tg s
Напр Скр Прв ур.ст ур.м изм
21:00 +14.8° штиль 0 - 0.6 км туман усиливается {ливневые осадки} неба не видно 752 764 -0.5 100% +14.8° - - - - -
18:00 +16.6° - - - 12 км ливневый дождь облачно 752 764 -0.2 97% +16.1° 200 м 14 - - -
15:00 +17° Ю 3 - 3 км умеренный или сильный ливневый дождь облачно 752 765 -0.8 96% +16.4° 300 м - - - -
12:00 +17.2° Ю 3 - 12 км - облачно 753 765 -0.2 97% +16.7° 300 м - - - -
09:00 +16° Ю 3 - 3 км слабый ливневый дождь облачно 753 766 -0.3 97% +15.5° 200 м - - - -
06:00 +15.8° Ю,Ю-В 4 - 12 км - облачно 754 766 +0.1 98% +15.5° 600 м 11 Влажная (без луж) - -
03:00 +15.8° Ю-В 3 - 10 км небо без изменений {ливневые осадки} облачно 754 766 -0.2 98% +15.5° 600 м - - - -
00:00 +16.3° штиль 0 - 5 км умеренный или сильный ливневый дождь облачно 754 766 +0.2 99% +16.1° 1 км - - - -
Вторник, 20 Августа
Время местн. Темп Ветер Видим Явления Облачность нижн/средн/верх Атм. давл. Влжн Точка росы ВНГО R Сост. почвы Tg s
Напр Скр Прв ур.ст ур.м изм
21:00 +16.8° Ю,Ю-В 2 - 10 км - облачно 754 766 +0.2 97% +16.4° 600 м - - - -
18:00 +16.8° штиль 0 - 12 км - облачно 753 766 +0.3 97% +16.3° 600 м 0.3 - - -
15:00 +17.1° Ю-В 2 - 12 км - облачно 753 765 0 92% +15.8° 600 м - - - -
12:00 +16.2° Ю-В 4 - 12 км - облачно 753 765 0 90% +14.6° 600 м - - - -
09:00 +13° В 3 - 12 км ливневый дождь облачно 753 766 0 97% +12.6° 600 м - - - -
06:00 +13.2° В 3 - 12 км - облачно 753 766 -0.2 92% +11.9° 1.5 км 0 Влажная (без луж) - -
03:00 +12.5° В 3 - 10 км - облачно с прояснениями 753 766 -0.5 91% +11° - - - - -
00:00 +14.2° В 3 - 10 км - облачно 754 766 -0.7 85% +11.8° - - - - -
Понедельник, 19 Августа
Время местн. Темп Ветер Видим Явления Облачность нижн/средн/верх Атм. давл. Влжн Точка росы ВНГО R Сост. почвы Tg s
Напр Скр Прв ур.ст ур.м изм
21:00 +15.8° В 3 - 10 км - облачно с прояснениями 755 767 -0.3 77% +11.8° - - - - -
18:00 +21.4° Ю-В 4 - 12 км - облачно 755 767 -0.5 56% +12.2° - 0 - - -
15:00 +22.6° Ю-В 4 - 12 км - облачно с прояснениями 755 767 -1.1 55% +13° 1.5 км - - - -
12:00 +22.6° В,Ю-В 4 - 12 км - переменная облачность 756 768 -1 53% +12.6° 1.5 км - - - -
09:00 +19.7° В,Ю-В 3 - 12 км - незначительная облачность 757 770 -0.2 63% +12.4° более 2.5 км - - - -
06:00 +13.3° Ю-В 3 - 12 км - переменная облачность 758 770 0 87% +11.2° - 0 Влажная (без луж) - -
03:00 +9.1° В,Ю-В 1 - 10 км - облачно с прояснениями 758 770 +0.5 100% +9.1° - - - - -
00:00 +9.9° штиль 0 - 10 км - переменная облачность 757 770 +0.4 100% +9.9° - - - - -
Воскресенье, 18 Августа
Время местн. Темп Ветер Видим Явления Облачность нижн/средн/верх Атм. давл. Влжн Точка росы ВНГО R Сост. почвы Tg s
Напр Скр Прв ур.ст ур.м изм
21:00 +11.9° штиль 0 - 10 км - ясно 757 769 +0.5 99% +11.8° более 2.5 км - - - -
18:00 +17.8° - - - 12 км - переменная облачность 756 768 +0.2 65% +11.2° 1.5 км 0 - - -